Time;durP1;ratioP1;P1;durP2;ratioP2;P2;SDS_P1;SDS_P2;PMS_P1;PMS_P2;Temp;Humidity;BMP_temperature;BMP_pressure;BME280_temperature;BME280_humidity;BME280_pressure;Samples;Min_cycle;Max_cycle;Signal;HPM_P1;HPM_P2
2021/10/10 00:02:27;;;;;;;9.52;5.75;;;2.10;99.90;;;;;;5018360;28;20045;-69
2021/10/10 00:04:55;;;;;;;9.57;6.05;;;2.10;99.90;;;;;;5000066;28;20022;-69
2021/10/10 00:07:23;;;;;;;9.82;5.53;;;2.00;99.90;;;;;;5018185;28;20101;-69
2021/10/10 00:09:51;;;;;;;13.05;5.78;;;2.00;99.90;;;;;;5017612;28;20073;-69
2021/10/10 00:12:19;;;;;;;11.43;5.82;;;2.00;99.90;;;;;;5017553;28;20075;-69
2021/10/10 00:14:46;;;;;;;11.95;5.85;;;2.00;99.90;;;;;;5016662;28;20310;-69
2021/10/10 00:17:14;;;;;;;14.35;6.07;;;2.00;99.90;;;;;;5016675;28;20156;-69
2021/10/10 00:19:41;;;;;;;8.45;4.75;;;1.90;99.90;;;;;;5016540;28;20037;-69
2021/10/10 00:22:09;;;;;;;16.67;5.68;;;1.90;99.90;;;;;;5017285;28;20022;-69
2021/10/10 00:24:37;;;;;;;10.48;5.95;;;1.80;99.90;;;;;;4999036;28;20034;-69
2021/10/10 00:27:04;;;;;;;10.85;5.68;;;1.80;99.90;;;;;;5016574;28;20124;-69
2021/10/10 00:29:32;;;;;;;12.48;5.13;;;1.80;99.90;;;;;;5016587;28;20109;-69
2021/10/10 00:32:01;;;;;;;10.63;5.50;;;1.70;99.90;;;;;;5016510;28;20048;-69
2021/10/10 00:34:29;;;;;;;10.35;5.40;;;1.70;99.90;;;;;;5017286;28;20125;-69
2021/10/10 00:36:56;;;;;;;10.50;6.03;;;1.70;99.90;;;;;;5021635;28;20018;-69
2021/10/10 00:39:24;;;;;;;10.13;5.30;;;1.70;99.90;;;;;;5041321;28;20018;-69
2021/10/10 00:41:51;;;;;;;9.57;5.70;;;1.60;99.90;;;;;;5041576;28;20278;-69
2021/10/10 00:44:19;;;;;;;9.10;4.70;;;1.60;99.90;;;;;;5041296;28;20345;-69
2021/10/10 00:46:46;;;;;;;9.85;5.45;;;1.60;99.90;;;;;;5023521;28;20072;-69
2021/10/10 00:49:14;;;;;;;12.68;5.75;;;1.50;99.90;;;;;;5007115;28;20095;-69
2021/10/10 00:51:45;;;;;;;10.32;5.47;;;1.50;99.90;;;;;;5040905;28;20036;-69
2021/10/10 00:54:17;;;;;;;10.70;5.13;;;1.50;99.90;;;;;;5040073;28;20099;-69
2021/10/10 00:56:46;;;;;;;10.40;5.47;;;1.50;99.90;;;;;;5040587;28;20022;-69
2021/10/10 00:59:21;;;;;;;11.05;5.38;;;1.40;99.90;;;;;;5040316;28;20021;-69
2021/10/10 01:01:50;;;;;;;9.45;5.38;;;1.40;99.90;;;;;;5039753;28;20096;-69
2021/10/10 01:04:18;;;;;;;13.35;5.45;;;1.40;99.90;;;;;;5040149;28;20060;-69
2021/10/10 01:06:46;;;;;;;9.85;4.20;;;1.30;99.90;;;;;;5039707;28;20018;-69
2021/10/10 01:09:14;;;;;;;12.68;5.18;;;1.30;99.90;;;;;;5022039;28;20090;-69
2021/10/10 01:11:42;;;;;;;7.30;4.85;;;1.20;99.90;;;;;;5039611;28;20040;-69
2021/10/10 01:14:11;;;;;;;10.65;5.10;;;1.20;99.90;;;;;;5040061;28;20025;-69
2021/10/10 01:16:39;;;;;;;11.02;4.78;;;1.10;99.90;;;;;;5040539;28;20029;-68
2021/10/10 01:19:07;;;;;;;8.50;4.70;;;1.10;99.90;;;;;;5040569;28;20080;-69
2021/10/10 01:21:35;;;;;;;10.40;5.25;;;1.10;99.90;;;;;;5040855;28;20306;-69
2021/10/10 01:24:03;;;;;;;10.00;5.13;;;1.10;99.90;;;;;;5040248;28;20027;-69
2021/10/10 01:26:32;;;;;;;9.27;4.93;;;1.00;99.90;;;;;;5040309;28;20120;-69
2021/10/10 01:29:00;;;;;;;8.98;5.07;;;1.00;99.90;;;;;;5040161;28;20013;-68
2021/10/10 01:31:27;;;;;;;11.60;4.95;;;1.00;99.90;;;;;;5040062;28;20124;-69
2021/10/10 01:33:55;;;;;;;12.82;4.95;;;1.00;99.90;;;;;;5022425;28;20329;-69
2021/10/10 01:36:22;;;;;;;8.82;4.28;;;1.00;99.90;;;;;;5039366;28;20456;-69
2021/10/10 01:38:49;;;;;;;8.70;4.53;;;0.90;99.90;;;;;;5038874;28;20349;-69
2021/10/10 01:41:17;;;;;;;14.25;5.82;;;0.90;99.90;;;;;;5039551;28;20104;-69
2021/10/10 01:43:44;;;;;;;7.25;4.03;;;0.80;99.90;;;;;;5038978;28;20022;-69
2021/10/10 01:46:11;;;;;;;11.13;5.80;;;0.90;99.90;;;;;;5038991;28;20021;-68
2021/10/10 01:48:38;;;;;;;10.88;4.07;;;0.80;99.90;;;;;;5038174;28;20017;-69
2021/10/10 01:51:06;;;;;;;10.40;4.68;;;0.80;99.90;;;;;;5038829;28;20100;-69
2021/10/10 01:53:33;;;;;;;10.43;4.65;;;0.80;99.90;;;;;;5039314;28;20013;-69
2021/10/10 01:56:00;;;;;;;10.75;5.03;;;0.80;99.90;;;;;;5038714;28;20036;-69
2021/10/10 01:58:27;;;;;;;10.55;5.72;;;0.80;99.90;;;;;;5040232;28;20026;-69
2021/10/10 02:00:55;;;;;;;9.02;4.72;;;0.70;99.90;;;;;;5039872;28;20029;-69
2021/10/10 02:03:22;;;;;;;8.65;4.93;;;0.70;99.90;;;;;;5039480;28;20318;-69
2021/10/10 02:05:50;;;;;;;10.00;4.93;;;0.70;99.90;;;;;;5039442;28;20021;-69
2021/10/10 02:08:18;;;;;;;10.07;4.93;;;0.70;99.90;;;;;;5039780;28;20104;-69
2021/10/10 02:10:46;;;;;;;12.32;5.93;;;0.60;99.90;;;;;;5039688;28;20152;-69
2021/10/10 02:13:13;;;;;;;8.68;4.72;;;0.60;99.90;;;;;;5039615;28;20028;-69
2021/10/10 02:15:41;;;;;;;11.57;4.78;;;0.60;99.90;;;;;;5039271;28;20068;-69
2021/10/10 02:18:09;;;;;;;9.77;4.88;;;0.50;99.90;;;;;;5038441;28;20414;-69
2021/10/10 02:20:37;;;;;;;10.60;5.47;;;0.50;99.90;;;;;;5038824;28;20033;-69
2021/10/10 02:23:05;;;;;;;11.95;4.68;;;0.50;99.90;;;;;;5020706;28;20045;-69
2021/10/10 02:25:32;;;;;;;11.95;5.63;;;0.50;99.90;;;;;;5038683;28;20079;-69
2021/10/10 02:27:59;;;;;;;20.17;5.13;;;0.50;99.90;;;;;;5038324;28;20017;-69
2021/10/10 02:30:27;;;;;;;9.75;5.07;;;0.50;99.90;;;;;;5038087;28;20084;-69
2021/10/10 02:32:55;;;;;;;7.93;4.05;;;0.40;99.90;;;;;;5020546;28;20108;-69
2021/10/10 02:35:22;;;;;;;8.70;4.53;;;0.40;99.90;;;;;;5037889;28;20021;-69
2021/10/10 02:37:49;;;;;;;7.97;4.32;;;0.40;99.90;;;;;;5037783;28;20337;-69
2021/10/10 02:40:17;;;;;;;11.25;5.03;;;0.30;99.90;;;;;;5039243;28;20317;-69
2021/10/10 02:42:44;;;;;;;10.57;4.75;;;0.40;99.90;;;;;;5039221;28;20428;-69
2021/10/10 02:45:13;;;;;;;10.63;4.55;;;0.40;99.90;;;;;;5038662;28;20025;-69
2021/10/10 02:47:40;;;;;;;8.82;4.30;;;0.30;99.90;;;;;;5038712;28;20018;-69
2021/10/10 02:50:08;;;;;;;14.32;4.78;;;0.30;99.90;;;;;;5021228;28;20383;-69
2021/10/10 02:52:35;;;;;;;8.13;4.45;;;0.30;99.90;;;;;;5039284;28;20394;-68
2021/10/10 02:55:03;;;;;;;9.73;4.43;;;0.30;99.90;;;;;;5039054;28;20025;-68
2021/10/10 02:57:31;;;;;;;10.93;5.28;;;0.20;99.90;;;;;;5020986;28;20409;-69
2021/10/10 02:59:58;;;;;;;12.55;4.78;;;0.20;99.90;;;;;;5037410;28;20033;-69
2021/10/10 03:02:26;;;;;;;12.00;5.60;;;0.20;99.90;;;;;;5037477;28;20025;-69
2021/10/10 03:04:53;;;;;;;10.35;5.25;;;0.20;99.90;;;;;;5019729;28;20029;-69
2021/10/10 03:07:22;;;;;;;9.38;4.35;;;0.20;99.90;;;;;;5019884;28;20026;-69
2021/10/10 03:09:51;;;;;;;8.38;5.40;;;0.10;99.90;;;;;;5037369;28;20024;-69
2021/10/10 03:12:18;;;;;;;11.63;5.38;;;0.10;99.90;;;;;;5037308;28;20026;-69
2021/10/10 03:14:46;;;;;;;10.75;4.95;;;0.10;99.90;;;;;;5037309;28;20017;-69
2021/10/10 03:17:13;;;;;;;10.68;5.32;;;0.10;99.90;;;;;;5037919;28;20060;-69
2021/10/10 03:19:41;;;;;;;10.10;5.10;;;0.10;99.90;;;;;;5037105;28;20021;-69
2021/10/10 03:22:08;;;;;;;9.45;4.78;;;0.10;99.90;;;;;;5038001;28;20410;-69
2021/10/10 03:24:35;;;;;;;10.13;5.18;;;0.10;99.90;;;;;;5020376;28;20040;-69
2021/10/10 03:27:03;;;;;;;11.73;5.35;;;0.10;99.90;;;;;;5038688;28;20096;-69
2021/10/10 03:29:31;;;;;;;10.65;5.43;;;0.10;99.90;;;;;;5020387;28;20032;-69
2021/10/10 03:31:59;;;;;;;11.00;4.80;;;0.10;99.90;;;;;;5038452;28;20048;-69
2021/10/10 03:34:26;;;;;;;13.50;5.05;;;0.10;99.90;;;;;;5020229;28;20029;-69
2021/10/10 03:36:54;;;;;;;9.73;4.72;;;0.00;99.90;;;;;;5038272;28;20426;-69
2021/10/10 03:39:21;;;;;;;11.15;4.65;;;0.00;99.90;;;;;;5038298;28;20116;-69
2021/10/10 03:41:49;;;;;;;10.45;4.07;;;0.00;99.90;;;;;;5037456;28;20019;-69
2021/10/10 03:44:16;;;;;;;11.35;4.65;;;0.00;99.90;;;;;;5037016;28;20303;-69
2021/10/10 03:46:44;;;;;;;11.55;5.15;;;0.00;99.90;;;;;;5037079;28;20325;-69
2021/10/10 03:49:12;;;;;;;12.70;5.75;;;0.00;99.90;;;;;;5036620;28;20021;-69
2021/10/10 03:51:39;;;;;;;10.18;4.60;;;0.00;99.90;;;;;;5019128;28;20103;-69
2021/10/10 03:56:51;;;;;;;11.35;4.82;;;-0.20;99.90;;;;;;5036814;28;20025;-69
2021/10/10 03:59:21;;;;;;;10.75;4.30;;;-0.20;99.90;;;;;;5036571;28;20025;-69
2021/10/10 04:01:50;;;;;;;9.88;4.70;;;-0.20;99.90;;;;;;5037078;28;20030;-69
2021/10/10 04:04:18;;;;;;;11.77;4.80;;;-0.20;99.90;;;;;;5037124;28;20021;-69
2021/10/10 04:06:45;;;;;;;12.68;5.03;;;-0.30;99.90;;;;;;5019980;28;20302;-69
2021/10/10 04:09:13;;;;;;;11.00;4.82;;;-0.20;99.90;;;;;;5037910;28;20029;-69
2021/10/10 04:11:40;;;;;;;10.70;4.93;;;-0.30;99.90;;;;;;5037274;28;20014;-69
2021/10/10 04:14:07;;;;;;;9.68;4.72;;;-0.20;99.90;;;;;;5037792;28;20083;-69
2021/10/10 04:16:34;;;;;;;12.10;5.72;;;-0.20;99.90;;;;;;5019760;28;20021;-69
2021/10/10 04:19:01;;;;;;;8.40;4.40;;;-0.20;99.90;;;;;;5037751;28;20432;-69
2021/10/10 04:21:29;;;;;;;11.23;4.82;;;-0.20;99.90;;;;;;5019721;28;20386;-69
2021/10/10 04:23:56;;;;;;;13.68;5.35;;;-0.20;99.90;;;;;;5036536;28;20036;-69
2021/10/10 04:26:23;;;;;;;11.30;4.72;;;-0.20;99.90;;;;;;5036211;28;20065;-69
2021/10/10 04:28:51;;;;;;;10.27;4.57;;;-0.20;99.90;;;;;;5036304;28;20029;-69
2021/10/10 04:31:19;;;;;;;9.27;4.82;;;-0.20;99.90;;;;;;5037654;28;20294;-69
2021/10/10 04:33:46;;;;;;;11.10;4.97;;;-0.20;99.90;;;;;;5036391;28;20410;-69
2021/10/10 04:36:15;;;;;;;11.05;4.78;;;-0.30;99.90;;;;;;5036782;28;20029;-69
2021/10/10 04:38:43;;;;;;;8.68;5.40;;;-0.30;99.90;;;;;;5036179;28;20057;-69
2021/10/10 04:41:10;;;;;;;8.95;4.60;;;-0.30;99.90;;;;;;5036857;28;20018;-69
2021/10/10 04:43:37;;;;;;;14.75;4.88;;;-0.30;99.90;;;;;;5036122;28;20326;-69
2021/10/10 04:46:05;;;;;;;7.10;4.35;;;-0.30;99.90;;;;;;5037261;28;20048;-69
2021/10/10 04:48:32;;;;;;;10.85;5.57;;;-0.30;99.90;;;;;;5036996;28;20113;-69
2021/10/10 04:51:00;;;;;;;8.30;4.50;;;-0.30;99.90;;;;;;5037036;28;20064;-69
2021/10/10 04:53:27;;;;;;;10.23;5.43;;;-0.30;99.90;;;;;;5019530;28;20418;-69
2021/10/10 04:55:56;;;;;;;10.75;5.03;;;-0.40;99.90;;;;;;5036936;28;20026;-69
2021/10/10 04:58:23;;;;;;;12.75;5.22;;;-0.40;99.90;;;;;;5037504;28;20086;-69
2021/10/10 05:00:50;;;;;;;8.90;4.78;;;-0.40;99.90;;;;;;5019395;28;20307;-69
2021/10/10 05:03:18;;;;;;;10.93;5.10;;;-0.40;99.90;;;;;;5037455;28;20025;-69
2021/10/10 05:05:46;;;;;;;12.63;5.22;;;-0.40;99.90;;;;;;5036807;28;20022;-69
2021/10/10 05:08:13;;;;;;;10.38;5.55;;;-0.40;99.90;;;;;;5036512;28;20021;-69
2021/10/10 05:10:40;;;;;;;9.45;5.00;;;-0.40;99.90;;;;;;5036463;28;20017;-69
2021/10/10 05:13:07;;;;;;;11.50;5.38;;;-0.40;99.90;;;;;;5036628;28;20021;-69
2021/10/10 05:15:35;;;;;;;10.52;4.93;;;-0.40;99.90;;;;;;5036151;28;20051;-69
2021/10/10 05:18:02;;;;;;;14.18;5.15;;;-0.40;99.90;;;;;;5035830;28;20024;-69
2021/10/10 05:20:30;;;;;;;10.32;4.75;;;-0.40;99.90;;;;;;5036360;28;20048;-69
2021/10/10 05:22:58;;;;;;;8.98;5.00;;;-0.50;99.90;;;;;;5038670;28;20025;-69
2021/10/10 05:25:25;;;;;;;12.52;4.28;;;-0.50;99.90;;;;;;5039246;28;20032;-69
2021/10/10 05:27:52;;;;;;;9.82;5.28;;;-0.50;99.90;;;;;;5040052;28;20022;-69
2021/10/10 05:30:20;;;;;;;10.27;5.32;;;-0.50;99.90;;;;;;5040098;28;20101;-69
2021/10/10 05:32:47;;;;;;;11.20;4.88;;;-0.50;99.90;;;;;;5040231;28;20410;-68
2021/10/10 05:35:15;;;;;;;17.33;5.35;;;-0.50;99.90;;;;;;5040304;28;20029;-69
2021/10/10 05:37:42;;;;;;;11.02;4.80;;;-0.50;99.90;;;;;;5039893;28;20053;-69
2021/10/10 05:40:10;;;;;;;13.52;5.65;;;-0.50;99.90;;;;;;5039980;28;20039;-69
2021/10/10 05:42:38;;;;;;;13.98;6.22;;;-0.50;99.90;;;;;;5040131;28;20076;-69
2021/10/10 05:45:06;;;;;;;9.15;4.85;;;-0.50;99.90;;;;;;5040339;28;20025;-68
2021/10/10 05:47:33;;;;;;;9.05;4.35;;;-0.50;99.90;;;;;;5039824;28;20022;-69
2021/10/10 05:50:01;;;;;;;10.60;4.95;;;-0.50;99.90;;;;;;5038837;28;20021;-68
2021/10/10 05:52:28;;;;;;;10.00;4.78;;;-0.50;99.90;;;;;;5039554;28;20025;-68
2021/10/10 05:54:56;;;;;;;10.70;5.30;;;-0.50;99.90;;;;;;5039364;28;20338;-70
2021/10/10 05:57:31;;;;;;;8.80;4.32;;;-0.40;99.90;;;;;;5039026;28;20060;-71
2021/10/10 06:00:02;;;;;;;;;;;-0.40;99.90;;;;;;5039071;28;20021;-71
2021/10/10 06:02:34;;;;;;;13.13;5.45;;;-0.40;99.90;;;;;;5038633;28;19992;-70
2021/10/10 06:05:01;;;;;;;11.63;5.30;;;-0.40;99.90;;;;;;5038481;28;20029;-70
2021/10/10 06:07:29;;;;;;;9.07;4.97;;;-0.30;99.90;;;;;;5038820;28;20021;-70
2021/10/10 06:09:56;;;;;;;14.63;5.50;;;-0.30;99.90;;;;;;5039254;28;20033;-70
2021/10/10 06:12:24;;;;;;;11.32;5.47;;;-0.30;99.90;;;;;;5039413;28;20367;-68
2021/10/10 06:14:52;;;;;;;12.05;5.97;;;-0.20;99.90;;;;;;5039916;28;20460;-69
2021/10/10 06:17:20;;;;;;;10.00;6.03;;;-0.20;99.90;;;;;;5039471;28;20025;-69
2021/10/10 06:19:48;;;;;;;12.95;5.65;;;-0.20;99.90;;;;;;5039277;28;20018;-69
2021/10/10 06:22:15;;;;;;;11.18;6.00;;;-0.10;99.90;;;;;;5021650;28;20497;-69
2021/10/10 06:24:43;;;;;;;11.63;6.55;;;-0.10;99.90;;;;;;5039090;28;20028;-68
2021/10/10 06:27:12;;;;;;;15.15;6.32;;;0.00;99.90;;;;;;5039215;28;20022;-69
2021/10/10 06:29:40;;;;;;;10.88;5.75;;;0.10;99.90;;;;;;5038902;28;20021;-68
2021/10/10 06:32:07;;;;;;;10.93;5.45;;;0.10;99.90;;;;;;5020241;28;20029;-69
2021/10/10 06:34:34;;;;;;;9.52;4.97;;;0.10;99.90;;;;;;5037182;28;20472;-68
2021/10/10 06:37:02;;;;;;;13.77;6.03;;;0.10;99.90;;;;;;5038470;28;20025;-68
2021/10/10 06:39:30;;;;;;;14.98;6.22;;;0.20;99.90;;;;;;5038417;28;20049;-68
2021/10/10 06:41:57;;;;;;;17.77;7.93;;;0.30;99.90;;;;;;5038493;28;20056;-69
2021/10/10 06:44:25;;;;;;;11.73;5.47;;;0.30;99.90;;;;;;5038391;28;20021;-68
2021/10/10 06:46:52;;;;;;;12.95;5.65;;;0.40;99.90;;;;;;5038441;28;20021;-68
2021/10/10 06:49:19;;;;;;;13.32;5.90;;;0.50;99.90;;;;;;5037946;28;20018;-68
2021/10/10 06:51:50;;;;;;;14.02;5.95;;;0.50;99.90;;;;;;5021633;28;20049;-69
2021/10/10 06:54:17;;;;;;;12.02;6.32;;;0.60;99.90;;;;;;5038580;28;20348;-69
2021/10/10 06:56:45;;;;;;;12.32;5.93;;;0.70;99.90;;;;;;5038784;28;20362;-69
2021/10/10 06:59:13;;;;;;;10.40;5.32;;;0.80;99.90;;;;;;5039053;28;20081;-68
2021/10/10 07:01:41;;;;;;;13.80;5.82;;;0.90;99.90;;;;;;5038461;28;20045;-85
2021/10/10 07:04:09;;;;;;;13.38;6.78;;;1.00;99.90;;;;;;5038322;28;20028;-69
2021/10/10 07:06:36;;;;;;;15.40;7.15;;;1.10;99.90;;;;;;5020830;28;20033;-70
2021/10/10 07:09:04;;;;;;;15.77;6.53;;;1.20;99.90;;;;;;5038822;28;20120;-69
2021/10/10 07:11:32;;;;;;;16.35;7.63;;;1.30;99.90;;;;;;5037793;28;20013;-68
2021/10/10 07:13:59;;;;;;;14.13;6.88;;;1.40;99.90;;;;;;5037792;28;20022;-69
2021/10/10 07:16:28;;;;;;;14.15;7.55;;;1.50;99.90;;;;;;5037179;28;20030;-69
2021/10/10 07:18:57;;;;;;;14.70;7.25;;;1.60;99.90;;;;;;5037138;28;20095;-69
2021/10/10 07:26:38;;;;;;;13.05;7.03;;;2.00;99.90;;;;;;5037041;28;20490;-68
2021/10/10 07:29:06;;;;;;;16.90;7.57;;;2.10;99.90;;;;;;5037770;28;20076;-68
2021/10/10 07:31:34;;;;;;;15.95;6.90;;;2.20;99.90;;;;;;5037230;28;20067;-69
2021/10/10 07:34:01;;;;;;;12.88;6.97;;;2.30;99.90;;;;;;5038294;28;20013;-71
2021/10/10 07:36:29;;;;;;;11.90;6.93;;;2.40;99.90;;;;;;5037900;28;20032;-69
2021/10/10 07:38:56;;;;;;;13.40;7.22;;;2.50;99.90;;;;;;5003232;28;20151;-69
2021/10/10 07:41:23;;;;;;;12.18;7.00;;;2.60;99.90;;;;;;5018711;28;20473;-68
2021/10/10 07:43:51;;;;;;;17.98;7.57;;;2.70;99.90;;;;;;5018491;28;20034;-69
2021/10/10 07:46:20;;;;;;;13.63;7.32;;;2.90;99.90;;;;;;5017054;28;20049;-69
2021/10/10 07:48:48;;;;;;;17.00;7.85;;;3.00;99.90;;;;;;5018349;28;20022;-68
2021/10/10 07:51:22;;;;;;;14.05;7.25;;;3.10;99.90;;;;;;5018013;28;20050;-68
2021/10/10 07:53:50;;;;;;;13.73;7.65;;;3.20;99.90;;;;;;5017735;28;20026;-70
2021/10/10 07:56:19;;;;;;;13.25;6.65;;;3.30;99.90;;;;;;5016936;28;20060;-68
2021/10/10 07:58:47;;;;;;;17.92;7.75;;;3.40;99.90;;;;;;5000313;28;20036;-68
2021/10/10 08:01:15;;;;;;;15.02;7.70;;;3.50;99.90;;;;;;4999588;28;20038;-68
2021/10/10 08:03:43;;;;;;;11.38;6.68;;;3.60;99.90;;;;;;5016675;28;20030;-69
2021/10/10 08:06:11;;;;;;;11.63;6.40;;;3.70;99.90;;;;;;5016678;28;20022;-69
2021/10/10 08:08:39;;;;;;;18.30;7.80;;;3.80;99.90;;;;;;4999289;28;20033;-69
2021/10/10 08:11:10;;;;;;;16.13;6.40;;;3.90;99.90;;;;;;5000204;28;20028;-69
2021/10/10 08:13:37;;;;;;;12.38;6.57;;;4.00;99.90;;;;;;5017854;28;20264;-69
2021/10/10 08:16:05;;;;;;;10.73;6.30;;;4.10;99.90;;;;;;5017842;28;20113;-69
2021/10/10 08:18:32;;;;;;;14.45;6.65;;;4.30;99.90;;;;;;5000072;28;20323;-69
2021/10/10 08:21:00;;;;;;;13.68;6.05;;;4.40;99.90;;;;;;5018041;28;20105;-69
2021/10/10 08:23:29;;;;;;;11.30;5.68;;;4.60;99.90;;;;;;5017672;28;20022;-69
2021/10/10 08:25:57;;;;;;;12.18;6.20;;;4.80;99.90;;;;;;5017455;28;20426;-69
2021/10/10 08:28:25;;;;;;;15.88;6.13;;;4.90;99.90;;;;;;5018046;28;20097;-78
2021/10/10 08:30:53;;;;;;;10.40;6.10;;;5.10;99.90;;;;;;5000028;28;20029;-69
2021/10/10 08:33:22;;;;;;;11.80;6.10;;;5.20;99.90;;;;;;5017138;28;20018;-69
2021/10/10 08:35:50;;;;;;;12.70;5.93;;;5.30;99.90;;;;;;5016658;28;20032;-69
2021/10/10 08:38:18;;;;;;;11.55;5.43;;;5.40;99.90;;;;;;5027942;28;20132;-69
2021/10/10 08:40:48;;;;;;;12.88;5.60;;;5.60;99.90;;;;;;5018716;28;20037;-69
2021/10/10 08:43:20;;;;;;;11.10;4.88;;;5.60;99.90;;;;;;5019203;28;20112;-69
2021/10/10 08:45:48;;;;;;;11.48;5.38;;;5.80;99.90;;;;;;5036127;28;20033;-68
2021/10/10 08:48:20;;;;;;;10.63;5.80;;;6.00;99.90;;;;;;5036743;28;20053;-68
2021/10/10 08:50:49;;;;;;;11.02;6.40;;;6.10;99.90;;;;;;5036134;28;20467;-69
2021/10/10 08:53:20;;;;;;;12.18;5.40;;;6.30;99.90;;;;;;5018571;28;20029;-69
2021/10/10 08:55:49;;;;;;;9.50;5.00;;;6.40;99.90;;;;;;5036701;28;20025;-69
2021/10/10 08:58:19;;;;;;;10.32;5.10;;;6.50;99.90;;;;;;5040742;28;20309;-69
2021/10/10 09:01:12;;;;;;;9.23;5.25;;;6.70;99.90;;;;;;5040679;28;20029;-68
2021/10/10 09:03:47;;;;;;;9.32;5.18;;;6.80;99.90;;;;;;5040449;28;20025;-69
2021/10/10 09:06:15;;;;;;;9.27;4.95;;;6.90;99.90;;;;;;5040732;28;20436;-70
2021/10/10 09:08:43;;;;;;;10.02;4.80;;;7.20;99.90;;;;;;5023824;28;20029;-70
2021/10/10 09:11:11;;;;;;;10.95;5.28;;;7.40;99.90;;;;;;5040598;28;20025;-70
2021/10/10 09:13:41;;;;;;;11.27;5.80;;;7.60;99.90;;;;;;5040904;28;20017;-69
2021/10/10 09:16:10;;;;;;;10.23;4.85;;;7.80;99.90;;;;;;5039702;28;20021;-67
2021/10/10 09:18:43;;;;;;;11.95;5.72;;;8.00;99.90;;;;;;5039315;28;20440;-67
2021/10/10 09:21:23;;;;;;;9.25;4.75;;;8.20;99.90;;;;;;5039979;28;20026;-67
2021/10/10 09:23:54;;;;;;;10.27;5.38;;;8.50;99.90;;;;;;5021652;28;20365;-67
2021/10/10 09:26:22;;;;;;;16.63;5.18;;;8.70;99.90;;;;;;5040000;28;20048;-67
2021/10/10 09:28:50;;;;;;;8.43;4.68;;;8.90;99.90;;;;;;5039245;28;20028;-67
2021/10/10 09:31:19;;;;;;;11.73;6.07;;;9.20;99.90;;;;;;5040074;28;20378;-67
2021/10/10 09:33:50;;;;;;;9.18;4.45;;;9.40;99.90;;;;;;5039589;28;20021;-67
2021/10/10 09:36:29;;;;;;;9.98;4.78;;;9.60;99.90;;;;;;5039282;28;20086;-68
2021/10/10 09:39:02;;;;;;;8.43;4.32;;;9.80;99.90;;;;;;5039901;28;20057;-67
2021/10/10 09:41:42;;;;;;;10.63;4.80;;;10.00;99.90;;;;;;5039650;28;20040;-67
2021/10/10 09:46:45;;;;;;;12.60;4.75;;;10.50;99.90;;;;;;5039841;28;20026;-67
2021/10/10 09:49:27;;;;;;;11.35;5.13;;;10.60;99.90;;;;;;5040335;28;20049;-68
2021/10/10 09:51:56;;;;;;;12.88;4.70;;;10.80;99.90;;;;;;5039638;28;20303;-68
2021/10/10 09:54:24;;;;;;;9.48;4.68;;;11.00;99.90;;;;;;5039805;28;20056;-67
2021/10/10 09:57:05;;;;;;;12.18;4.63;;;11.10;99.90;;;;;;5021219;28;20029;-67
2021/10/10 09:59:33;;;;;;;8.50;4.55;;;11.30;99.90;;;;;;5021457;28;20329;-68
2021/10/10 10:02:01;;;;;;;9.88;4.85;;;11.40;99.90;;;;;;5038890;28;20021;-68
2021/10/10 10:04:42;;;;;;;13.10;5.22;;;11.50;99.90;;;;;;5020971;28;20036;-68
2021/10/10 10:07:14;;;;;;;10.73;4.70;;;11.60;99.90;;;;;;5038618;28;20057;-68
2021/10/10 10:09:42;;;;;;;7.78;4.38;;;11.70;99.90;;;;;;5020003;28;20444;-68
2021/10/10 10:12:10;;;;;;;7.28;4.35;;;11.80;99.90;;;;;;5038874;28;20021;-68
2021/10/10 10:14:39;;;;;;;8.02;4.60;;;11.90;99.90;;;;;;5038340;28;20025;-68
2021/10/10 10:17:07;;;;;;;9.15;4.90;;;12.00;99.70;;;;;;5038592;28;20495;-68
2021/10/10 10:19:35;;;;;;;11.10;5.18;;;12.10;99.60;;;;;;5039455;28;20318;-68
2021/10/10 10:22:03;;;;;;;13.93;4.55;;;12.20;99.70;;;;;;5039432;28;20025;-68
2021/10/10 10:24:33;;;;;;;11.73;4.55;;;12.20;99.30;;;;;;5039499;28;20033;-70
2021/10/10 10:27:01;;;;;;;8.48;4.05;;;12.40;99.60;;;;;;5039192;28;20029;-68
2021/10/10 10:29:32;;;;;;;10.77;4.40;;;12.50;98.90;;;;;;5039702;28;20291;-69
2021/10/10 10:32:00;;;;;;;9.70;4.35;;;12.50;99.00;;;;;;5021778;28;20325;-66
2021/10/10 10:34:34;;;;;;;10.82;4.35;;;12.60;98.60;;;;;;5039141;28;20013;-67
2021/10/10 10:37:05;;;;;;;9.18;4.95;;;12.70;98.40;;;;;;5038506;28;20052;-67
2021/10/10 10:39:45;;;;;;;7.45;4.85;;;12.70;98.10;;;;;;5038546;28;20055;-67
2021/10/10 10:42:14;;;;;;;10.50;4.50;;;12.70;97.90;;;;;;5037974;28;20426;-67
2021/10/10 10:44:48;;;;;;;8.73;4.60;;;12.70;97.70;;;;;;5038221;28;20077;-68
2021/10/10 10:47:18;;;;;;;7.32;4.32;;;12.70;97.80;;;;;;5038291;28;20029;-68
2021/10/10 10:49:56;;;;;;;8.68;4.80;;;12.60;97.50;;;;;;5038149;28;20375;-67
2021/10/10 10:52:41;;;;;;;8.15;4.50;;;12.60;97.70;;;;;;5038436;28;20022;-67
2021/10/10 10:55:18;;;;;;;9.98;4.47;;;12.60;97.90;;;;;;5037625;28;20025;-67
2021/10/10 10:58:16;;;;;;;8.20;4.00;;;12.60;98.10;;;;;;5037971;28;20041;-67
2021/10/10 11:00:51;;;;;;;8.05;4.15;;;12.60;98.30;;;;;;5038225;28;20030;-67
2021/10/10 11:03:25;;;;;;;8.68;4.68;;;12.60;98.20;;;;;;5020816;28;20032;-67
2021/10/10 11:05:55;;;;;;;9.50;4.70;;;12.60;98.30;;;;;;5038871;28;20030;-67
2021/10/10 11:08:29;;;;;;;7.82;4.13;;;12.60;98.40;;;;;;5020908;28;20025;-68
2021/10/10 11:11:15;;;;;;;8.60;5.28;;;12.70;98.30;;;;;;5038155;28;20433;-67
2021/10/10 11:13:59;;;;;;;11.88;5.57;;;12.70;98.40;;;;;;5038256;28;20113;-67
2021/10/10 11:16:33;;;;;;;10.25;4.63;;;12.80;97.80;;;;;;5040133;28;20033;-67
2021/10/10 11:19:06;;;;;;;12.48;4.45;;;12.80;97.80;;;;;;5040620;28;20049;-67
2021/10/10 11:21:36;;;;;;;9.48;5.20;;;12.80;97.90;;;;;;5020635;28;20033;-67
2021/10/10 11:24:08;;;;;;;10.43;4.60;;;12.90;97.60;;;;;;5038268;28;20021;-67
2021/10/10 11:26:36;;;;;;;11.20;4.70;;;12.90;97.50;;;;;;5020966;28;20025;-67
2021/10/10 11:29:09;;;;;;;9.52;4.25;;;13.00;97.30;;;;;;5038070;28;20018;-67
2021/10/10 11:31:39;;;;;;;9.82;4.72;;;13.10;97.30;;;;;;5038013;28;20025;-67
2021/10/10 11:34:17;;;;;;;9.00;4.38;;;13.30;96.40;;;;;;5020800;28;20036;-67
2021/10/10 11:36:52;;;;;;;11.02;4.97;;;13.40;95.70;;;;;;5038292;28;20025;-67
2021/10/10 11:39:24;;;;;;;12.30;4.60;;;13.50;95.40;;;;;;5037291;28;20426;-67
2021/10/10 11:41:56;;;;;;;9.38;4.95;;;13.60;95.10;;;;;;5037428;28;20456;-67
2021/10/10 11:44:25;;;;;;;12.98;5.00;;;13.60;95.30;;;;;;5019293;28;20052;-67
2021/10/10 11:46:58;;;;;;;13.70;4.18;;;13.80;95.10;;;;;;5037941;28;20005;-67
2021/10/10 11:49:56;;;;;;;8.40;4.57;;;13.90;94.90;;;;;;5036735;28;20505;-67
2021/10/10 11:52:33;;;;;;;7.10;4.13;;;14.00;94.60;;;;;;5038711;28;20025;-67
2021/10/10 11:55:22;;;;;;;7.88;4.70;;;14.10;94.20;;;;;;5019577;28;20087;-67
2021/10/10 11:57:58;;;;;;;9.10;5.03;;;14.30;93.80;;;;;;5019068;28;20053;-67
2021/10/10 12:00:27;;;;;;;10.88;4.15;;;14.40;93.40;;;;;;5019075;28;20027;-67
2021/10/10 12:02:54;;;;;;;12.25;5.10;;;14.50;92.80;;;;;;5037434;28;20018;-67
2021/10/10 12:05:26;;;;;;;9.73;4.28;;;14.60;92.30;;;;;;5037263;28;20432;-67
2021/10/10 12:07:53;;;;;;;6.38;3.53;;;14.70;91.50;;;;;;5020282;28;20025;-67
2021/10/10 12:10:23;;;;;;;8.65;4.05;;;14.80;91.00;;;;;;5037965;28;20021;-67
2021/10/10 12:12:56;;;;;;;12.18;4.35;;;14.80;90.90;;;;;;5037457;28;20022;-67
2021/10/10 12:15:23;;;;;;;11.35;5.25;;;14.80;90.80;;;;;;5037374;28;20030;-67
2021/10/10 12:17:57;;;;;;;8.40;4.30;;;14.80;91.00;;;;;;5038064;28;20353;-67
2021/10/10 12:20:27;;;;;;;8.05;3.92;;;14.90;91.10;;;;;;5037279;28;20349;-67
2021/10/10 12:23:03;;;;;;;11.57;4.25;;;14.90;90.70;;;;;;5036607;28;20064;-67
2021/10/10 12:25:39;;;;;;;7.78;4.38;;;14.80;90.70;;;;;;5036184;28;20056;-67
2021/10/10 12:28:10;;;;;;;;;;;14.80;90.50;;;;;;5036826;28;20076;-67
2021/10/10 12:30:38;;;;;;;10.98;4.03;;;14.80;90.60;;;;;;5036929;28;19909;-67
2021/10/10 12:33:24;;;;;;;7.88;4.07;;;14.80;90.90;;;;;;5040267;28;20319;-68
2021/10/10 12:36:03;;;;;;;7.50;4.03;;;14.80;91.30;;;;;;5041044;28;20060;-67
2021/10/10 12:38:40;;;;;;;13.00;3.97;;;14.80;90.00;;;;;;5040189;28;20050;-67
2021/10/10 12:41:23;;;;;;;11.30;4.28;;;14.80;90.00;;;;;;5040459;28;20083;-67
2021/10/10 12:43:58;;;;;;;9.68;4.10;;;14.70;88.70;;;;;;5022789;28;20112;-68
2021/10/10 12:46:27;;;;;;;13.27;3.67;;;14.70;87.90;;;;;;5041333;28;20025;-67
2021/10/10 12:49:07;;;;;;;8.00;3.17;;;14.60;86.50;;;;;;5023379;28;20036;-67
2021/10/10 12:51:35;;;;;;;7.85;3.72;;;14.60;85.60;;;;;;5041680;28;20021;-67
2021/10/10 12:54:13;;;;;;;6.40;3.22;;;14.50;83.40;;;;;;5023356;28;20056;-67
2021/10/10 12:56:41;;;;;;;6.72;3.70;;;14.30;84.80;;;;;;5041448;28;20044;-67
2021/10/10 12:59:22;;;;;;;9.73;3.88;;;14.20;84.90;;;;;;5023525;28;20403;-67
2021/10/10 13:01:50;;;;;;;9.30;3.75;;;14.10;85.30;;;;;;5040942;28;20030;-67
2021/10/10 13:04:18;;;;;;;7.00;3.92;;;14.10;85.40;;;;;;5040424;28;20022;-67
2021/10/10 13:06:47;;;;;;;8.20;3.97;;;14.00;86.50;;;;;;5022156;28;20029;-67
2021/10/10 13:09:16;;;;;;;8.32;3.10;;;13.90;86.60;;;;;;5039767;28;20036;-67